ADDS METAR Data INFO
IDs: Format: Raw Decoded Include TAF

Data at: 1528 UTC 18 Jun 2018

KEZF 181515Z AUTO 00000KT 10SM CLR 30/23 A3005 RMK AO2 T03020230
KEZF 181455Z AUTO 00000KT 10SM CLR 30/23 A3005 RMK AO2 T02990233
KEZF 181435Z AUTO 22004KT 10SM CLR 29/23 A3005 RMK AO2 T02920232
KEZF 181415Z AUTO 00000KT 10SM CLR 29/23 A3005 RMK AO2 T02860228
KEZF 181355Z AUTO 00000KT 10SM CLR 28/23 A3005 RMK AO2 T02800228
KEZF 181335Z AUTO 00000KT 10SM CLR 27/23 A3005 RMK AO2 T02710227
KEZF 181315Z AUTO 00000KT 10SM CLR 26/22 A3006 RMK AO2 T02630223
KEZF 181255Z AUTO 00000KT 10SM CLR 26/24 A3006 RMK AO2 T02550240
KEZF 181235Z AUTO 00000KT 10SM CLR 25/24 A3007 RMK AO2 T02500236
KEZF 181215Z AUTO 00000KT 10SM CLR 25/24 A3007 RMK AO2 T02450240
KEZF 181155Z AUTO 00000KT 10SM CLR 24/24 A3006 RMK AO2 T02370237 10240 20207
KEZF 181135Z AUTO 00000KT 10SM CLR 23/23 A3007 RMK AO2 T02300230
KEZF 181110Z AUTO 00000KT 10SM CLR 22/22 A3006 RMK AO2 T02200220
KEZF 181055Z AUTO 00000KT 10SM CLR 22/22 A3006 RMK AO2 T02150215
KEZF 181035Z AUTO 00000KT 7SM CLR 21/21 A3006 RMK AO2 T02100210
KEZF 181015Z AUTO 00000KT 7SM CLR 21/21 A3006 RMK AO2 T02100210
KEZF 180955Z AUTO 00000KT 10SM CLR 21/21 A3006 RMK AO2 T02100210
KEZF 180935Z AUTO 00000KT 10SM CLR 21/21 A3006 RMK AO2 T02120212
KEZF 180915Z AUTO 00000KT 10SM CLR 22/22 A3006 RMK AO2 T02150215
KEZF 180855Z AUTO 00000KT 10SM CLR 22/22 A3006 RMK AO2 T02160216
KEZF 180835Z AUTO 00000KT 10SM CLR 22/22 A3006 RMK AO2 T02150215
KEZF 180815Z AUTO 00000KT 10SM CLR 22/22 A3006 RMK AO2 T02160216
KEZF 180755Z AUTO 00000KT 10SM CLR 22/22 A3006 RMK AO2 T02200220
KEZF 180735Z AUTO 00000KT 10SM CLR 22/22 A3006 RMK AO2 T02200220
KEZF 180715Z AUTO 00000KT 10SM CLR 22/22 A3005 RMK AO2 T02220222
KEZF 180655Z AUTO 00000KT 10SM CLR 23/23 A3005 RMK AO2 T02250225
KEZF 180635Z AUTO 00000KT 10SM SCT100 23/21 A3006 RMK AO2 T02300214
KEZF 180615Z AUTO 00000KT 10SM BKN100 24/22 A3006 RMK AO2 T02370215
KEZF 180555Z AUTO 00000KT 10SM OVC100 24/22 A3006 RMK AO2 T02380215 10283 20236 403170190
KEZF 180535Z AUTO 00000KT 10SM BKN100 24/21 A3006 RMK AO2 T02380212
KEZF 180515Z AUTO 26004KT 10SM OVC100 24/21 A3006 RMK AO2 T02400214
KEZF 180455Z AUTO 00000KT 10SM BKN100 24/22 A3006 RMK AO2 T02410216
KEZF 180435Z AUTO 13005KT 10SM CLR 24/22 A3006 RMK AO2 T02380215
KEZF 180415Z AUTO 00000KT 10SM CLR 25/22 A3005 RMK AO2 T02490215
KEZF 180355Z AUTO 13003KT 10SM SCT110 24/22 A3005 RMK AO2 T02440215
KEZF 180335Z AUTO 13004KT 10SM SCT110 26/21 A3006 RMK AO2 T02550213
KEZF 180315Z AUTO 14004KT 10SM BKN110 26/22 A3006 RMK AO2 T02560215
KEZF 180255Z AUTO 13006KT 10SM SCT055 SCT075 OVC100 26/22 A3007 RMK AO2 T02600216
KEZF 180235Z AUTO 13004KT 10SM SCT055 BKN075 OVC100 26/22 A3008 RMK AO2 T02560217
KEZF 180215Z AUTO 00000KT 10SM SCT075 OVC110 26/22 A3008 RMK AO2 T02610215
KEZF 180155Z AUTO 00000KT 10SM SCT075 OVC110 26/22 A3007 RMK AO2 T02610215
KEZF 180135Z AUTO 00000KT 10SM SCT070 OVC110 27/21 A3006 RMK AO2 T02660213
KEZF 180115Z AUTO 09005KT 10SM BKN070 OVC100 27/22 A3005 RMK AO2 T02700215
KEZF 180055Z AUTO 00000KT 10SM OVC070 27/23 A3005 RMK AO2 T02710226
KEZF 180035Z AUTO 07003KT 10SM SCT060 OVC080 28/22 A3004 RMK AO2 T02790216
KEZF 180015Z AUTO 00000KT 10SM BKN060 OVC070 28/23 A3004 RMK AO2 T02780229
KEZF 172355Z AUTO 00000KT 10SM BKN060 OVC070 28/22 A3004 RMK AO2 T02830223 10313 20283
KEZF 172335Z AUTO 00000KT 10SM BKN060 OVC070 29/21 A3004 RMK AO2 T02890209
KEZF 172315Z AUTO 00000KT 10SM OVC060 29/21 A3004 RMK AO2 T02870210
KEZF 172255Z AUTO 03003KT 10SM BKN060 OVC100 29/21 A3003 RMK AO2 T02860211
KEZF 172235Z AUTO 00000KT 10SM SCT047 BKN060 OVC100 29/22 A3003 RMK AO2 T02850220
KEZF 172215Z AUTO 00000KT 10SM SCT047 BKN060 OVC090 29/22 A3004 RMK AO2 T02850222
KEZF 172155Z AUTO 06003KT 10SM SCT060 OVC080 28/22 A3003 RMK AO2 T02840224
KEZF 172135Z AUTO 07004KT 10SM SCT065 OVC080 29/22 A3004 RMK AO2 T02850219
KEZF 172115Z AUTO 06004KT 10SM SCT041 BKN050 OVC080 29/23 A3004 RMK AO2 T02920225
KEZF 172055Z AUTO 09003KT 10SM BKN039 OVC049 29/22 A3004 RMK AO2 T02900221
KEZF 172035Z AUTO 03004KT 10SM SCT039 OVC047 29/22 A3003 RMK AO2 T02910218
KEZF 172015Z AUTO 03005KT 10SM BKN047 OVC090 30/23 A3004 RMK AO2 T02950227
KEZF 171955Z AUTO 03003KT 10SM SCT047 SCT060 OVC090 30/23 A3004 RMK AO2 T02980225
KEZF 171935Z AUTO 04004KT 10SM SCT039 SCT060 OVC080 30/23 A3004 RMK AO2 T03010227
KEZF 171915Z AUTO 05003KT 10SM SCT038 BKN044 OVC080 30/23 A3005 RMK AO2 T03010226
KEZF 171855Z AUTO 08003KT 10SM BKN044 OVC080 30/22 A3006 RMK AO2 T02990223
KEZF 171835Z AUTO 06004KT 10SM SCT042 OVC080 30/22 A3005 RMK AO2 T03010224
KEZF 171815Z AUTO 18003KT 10SM SCT042 OVC080 31/21 A3006 RMK AO2 T03090212
KEZF 171755Z AUTO 27003KT 10SM OVC080 31/22 A3006 RMK AO2 T03130221 10317 20218
KEZF 171735Z AUTO 19005KT 10SM SCT037 OVC080 31/22 A3006 RMK AO2 T03070215
KEZF 171715Z AUTO 18005KT 10SM SCT037 BKN070 32/22 A3007 RMK AO2 T03170223
KEZF 171655Z AUTO 15004KT 10SM SCT070 30/22 A3007 RMK AO2 T03040223
KEZF 171635Z AUTO 14003KT 10SM SCT070 30/22 A3007 RMK AO2 T03010221
KEZF 171615Z AUTO 14004KT 10SM BKN080 30/22 A3008 RMK AO2 T02960217
KEZF 171555Z AUTO 08003KT 10SM SCT080 SCT110 30/22 A3009 RMK AO2 T02950218
KEZF 171535Z AUTO 19003KT 10SM SCT085 BKN110 29/21 A3009 RMK AO2 T02890208
KEZF 171515Z AUTO 00000KT 10SM BKN085 BKN110 29/22 A3008 RMK AO2 T02850216
KEZF 171455Z AUTO 00000KT 10SM OVC095 28/21 A3009 RMK AO2 T02780214
KEZF 171435Z AUTO 00000KT 10SM OVC095 28/21 A3008 RMK AO2 T02790214
KEZF 171415Z AUTO 00000KT 10SM BKN095 OVC110 27/21 A3008 RMK AO2 T02700212
KEZF 171355Z AUTO 00000KT 10SM BKN110 27/21 A3008 RMK AO2 T02700209
KEZF 171335Z AUTO 00000KT 10SM SCT110 26/22 A3008 RMK AO2 T02610215
KEZF 171315Z AUTO 00000KT 10SM CLR 25/21 A3007 RMK AO2 T02520209
KEZF 171255Z AUTO 00000KT 10SM CLR 25/21 A3007 RMK AO2 T02470207
KEZF 171235Z AUTO 00000KT 10SM CLR 24/20 A3007 RMK AO2 T02370204
KEZF 171215Z AUTO 00000KT 10SM CLR 23/20 A3006 RMK AO2 T02270203
KEZF 171155Z AUTO 00000KT 10SM CLR 22/21 A3006 RMK AO2 T02170210 10217 20190
KEZF 171135Z AUTO 00000KT 10SM CLR 21/21 A3005 RMK AO2 T02060206
KEZF 171115Z AUTO 00000KT 10SM CLR 20/20 A3005 RMK AO2 T02030203
KEZF 171055Z AUTO 00000KT 10SM CLR 20/20 A3005 RMK AO2 T01990199
KEZF 171035Z AUTO 00000KT 10SM CLR 20/20 A3004 RMK AO2 T01950195
KEZF 171015Z AUTO 00000KT 10SM CLR 20/20 A3004 RMK AO2 T01950195
KEZF 170955Z AUTO 00000KT 10SM SCT120 19/19 A3003 RMK AO2 T01920192
KEZF 170935Z AUTO 00000KT 10SM CLR 19/19 A3002 RMK AO2 T01920192
KEZF 170915Z AUTO 00000KT 10SM CLR 19/19 A3002 RMK AO2 T01910191
KEZF 170855Z AUTO 00000KT 10SM CLR 19/19 A3002 RMK AO2 T01940194
KEZF 170835Z AUTO 00000KT 10SM CLR 20/20 A3002 RMK AO2 T01960196
KEZF 170815Z AUTO 00000KT 10SM CLR 20/20 A3002 RMK AO2 T02000200
KEZF 170755Z AUTO 00000KT 10SM CLR 21/21 A3002 RMK AO2 T02050205
KEZF 170735Z AUTO 00000KT 10SM SCT120 20/20 A3002 RMK AO2 T02010201
KEZF 170715Z AUTO 00000KT 10SM SCT090 SCT120 20/20 A3003 RMK AO2 T01960196
KEZF 170655Z AUTO 00000KT 10SM SCT075 BKN090 20/19 A3003 RMK AO2 T02000191
KEZF 170635Z AUTO 00000KT 10SM SCT090 21/19 A3004 RMK AO2 T02070188
KEZF 170615Z AUTO 00000KT 10SM SCT095 SCT120 21/19 A3004 RMK AO2 T02050188
KEZF 170555Z AUTO 00000KT 10SM BKN095 BKN120 21/19 A3004 RMK AO2 T02050185 10268 20201 403080152
KEZF 170535Z AUTO 00000KT 10SM SCT095 20/19 A3005 RMK AO2 T02040185
KEZF 170515Z AUTO 00000KT 10SM SCT120 21/19 A3005 RMK AO2 T02090187
KEZF 170455Z AUTO 00000KT 10SM BKN120 21/19 A3004 RMK AO2 T02060188
KEZF 170435Z AUTO 00000KT 10SM BKN120 20/18 A3005 RMK AO2 T02010183
KEZF 170415Z AUTO 00000KT 10SM CLR 21/19 A3005 RMK AO2 T02070188
KEZF 170355Z AUTO 00000KT 10SM CLR 21/18 A3005 RMK AO2 T02100183
KEZF 170335Z AUTO 00000KT 10SM CLR 21/18 A3004 RMK AO2 T02080181